createdAt,value
2023-02-20T00:01:40.073Z,3.55
2023-02-20T00:04:06.529Z,4.15
2023-02-20T00:06:32.935Z,4.40
2023-02-20T00:08:59.329Z,2.90
2023-02-20T00:11:25.774Z,3.42
2023-02-20T00:13:52.264Z,4.15
2023-02-20T00:16:18.697Z,4.10
2023-02-20T00:18:45.725Z,4.43
2023-02-20T00:21:12.737Z,4.15
2023-02-20T00:23:39.445Z,2.92
2023-02-20T00:26:10.017Z,3.25
2023-02-20T00:31:06.143Z,3.88
2023-02-20T00:33:32.719Z,4.40
2023-02-20T00:35:59.529Z,6.50
2023-02-20T00:38:26.090Z,5.88
2023-02-20T00:40:53.520Z,3.80
2023-02-20T00:43:20.015Z,3.92
2023-02-20T00:45:46.466Z,4.95
2023-02-20T00:48:12.922Z,4.20
2023-02-20T00:50:39.416Z,5.63
2023-02-20T00:53:06.273Z,5.10
2023-02-20T00:55:32.806Z,6.10
2023-02-20T00:57:59.350Z,6.75
2023-02-20T01:00:29.078Z,6.13
2023-02-20T01:02:56.334Z,4.88
2023-02-20T01:05:23.745Z,4.68
2023-02-20T01:07:50.809Z,5.38
2023-02-20T01:10:17.477Z,6.32
2023-02-20T01:12:43.963Z,7.10
2023-02-20T01:15:14.815Z,6.88
2023-02-20T01:17:41.272Z,5.32
2023-02-20T01:20:08.743Z,6.15
2023-02-20T01:22:35.151Z,5.30
2023-02-20T01:25:01.653Z,4.95
2023-02-20T01:27:28.086Z,6.32
2023-02-20T01:29:54.503Z,6.00
2023-02-20T01:32:20.921Z,5.32
2023-02-20T01:34:47.382Z,6.15
2023-02-20T01:37:15.354Z,5.25
2023-02-20T01:39:42.737Z,4.88
2023-02-20T01:42:17.732Z,7.32
2023-02-20T01:44:44.419Z,7.15
2023-02-20T01:47:20.156Z,4.65
2023-02-20T01:49:58.004Z,6.80
2023-02-20T01:52:26.677Z,6.20
2023-02-20T01:55:03.509Z,3.72
2023-02-20T01:57:33.377Z,4.03
2023-02-20T02:00:04.823Z,6.03
2023-02-20T02:02:46.011Z,5.47
2023-02-20T02:05:13.555Z,4.00
2023-02-20T02:07:40.629Z,5.32
2023-02-20T02:10:11.059Z,5.63
2023-02-20T02:12:38.170Z,5.97
2023-02-20T02:15:13.707Z,7.28
2023-02-20T02:17:59.266Z,8.52
2023-02-20T02:20:41.829Z,4.82
2023-02-20T02:23:38.670Z,8.48
2023-02-20T02:26:21.493Z,8.32
2023-02-20T02:29:17.515Z,7.32
2023-02-20T02:32:19.599Z,7.63
2023-02-20T02:35:28.109Z,6.30
2023-02-20T02:37:57.460Z,3.58
2023-02-20T02:40:33.951Z,6.75
2023-02-20T02:43:23.830Z,8.02
2023-02-20T02:46:04.589Z,8.38
2023-02-20T02:48:40.658Z,7.75
2023-02-20T02:51:26.800Z,7.57
2023-02-20T02:54:11.252Z,8.60
2023-02-20T02:56:47.850Z,8.38
2023-02-20T02:59:29.778Z,8.18
2023-02-20T03:02:03.286Z,10.35
2023-02-20T03:04:33.030Z,9.90
2023-02-20T03:07:04.509Z,11.65
2023-02-20T03:09:34.390Z,7.50
2023-02-20T03:12:03.033Z,6.45
2023-02-20T03:14:59.186Z,9.77
2023-02-20T03:17:36.788Z,10.13
2023-02-20T03:20:09.210Z,7.05
2023-02-20T03:22:51.453Z,10.32
2023-02-20T03:25:23.601Z,9.18
2023-02-20T03:27:58.053Z,10.52
2023-02-20T03:30:30.537Z,9.05
2023-02-20T03:33:48.785Z,10.00
2023-02-20T03:36:40.837Z,8.20
2023-02-20T03:39:31.186Z,9.65
2023-02-20T03:42:19.571Z,8.27
2023-02-20T03:44:51.860Z,9.77
2023-02-20T03:47:22.402Z,7.32
2023-02-20T03:49:50.530Z,9.27
2023-02-20T03:52:18.058Z,9.25
2023-02-20T03:54:44.781Z,7.38
2023-02-20T03:57:20.794Z,10.35
2023-02-20T03:59:54.991Z,8.75
2023-02-20T04:02:24.846Z,7.63
2023-02-20T04:04:54.823Z,7.20
2023-02-20T04:07:29.995Z,10.02
2023-02-20T04:10:01.440Z,6.43
2023-02-20T04:12:36.879Z,7.38
2023-02-20T04:15:06.229Z,10.45
2023-02-20T04:17:42.090Z,7.93
2023-02-20T04:20:09.162Z,8.50
2023-02-20T04:22:44.412Z,10.57
2023-02-20T04:25:15.284Z,9.30
2023-02-20T04:27:41.824Z,9.20
2023-02-20T04:30:10.536Z,9.77
2023-02-20T04:32:37.346Z,9.68
2023-02-20T04:35:04.161Z,8.13
2023-02-20T04:37:30.709Z,8.45
2023-02-20T04:39:58.215Z,8.48
2023-02-20T04:42:24.691Z,7.90
2023-02-20T04:44:51.218Z,9.50
2023-02-20T04:47:18.949Z,8.27
2023-02-20T04:49:45.938Z,8.00
2023-02-20T04:52:16.749Z,10.57
2023-02-20T04:54:43.362Z,9.20
2023-02-20T04:57:12.043Z,9.68
2023-02-20T04:59:38.488Z,9.85
2023-02-20T05:02:05.485Z,10.05
2023-02-20T05:04:32.002Z,10.30
2023-02-20T05:06:58.571Z,9.93
2023-02-20T05:09:25.162Z,11.23
2023-02-20T05:11:51.854Z,7.97
2023-02-20T05:14:18.307Z,9.13
2023-02-20T05:16:45.622Z,7.70
2023-02-20T05:19:14.131Z,9.20
2023-02-20T05:22:05.838Z,9.75
2023-02-20T05:24:32.282Z,8.90
2023-02-20T05:26:59.154Z,9.45
2023-02-20T05:29:25.695Z,9.80
2023-02-20T05:31:52.377Z,8.90
2023-02-20T05:34:21.242Z,8.40
2023-02-20T05:36:47.628Z,8.95
2023-02-20T05:39:14.088Z,5.90
2023-02-20T05:41:40.550Z,7.93
2023-02-20T05:44:07.011Z,9.45
2023-02-20T05:46:40.121Z,9.35
2023-02-20T05:49:06.702Z,8.07
2023-02-20T05:51:34.301Z,8.52
2023-02-20T05:54:00.875Z,8.48
2023-02-20T05:56:27.794Z,6.30
2023-02-20T05:58:54.176Z,10.73
2023-02-20T06:01:23.561Z,6.90
2023-02-20T06:03:50.351Z,7.55
2023-02-20T06:06:17.564Z,8.02
2023-02-20T06:08:44.486Z,7.10
2023-02-20T06:11:12.906Z,6.15
2023-02-20T06:13:41.144Z,9.02
2023-02-20T06:16:08.041Z,6.20
2023-02-20T06:18:37.853Z,5.72
2023-02-20T06:21:07.882Z,5.07
2023-02-20T06:23:34.759Z,6.40
2023-02-20T06:26:01.186Z,6.28
2023-02-20T06:28:27.640Z,5.45
2023-02-20T06:30:54.110Z,4.07
2023-02-20T06:33:20.509Z,4.72
2023-02-20T06:35:46.913Z,4.32
2023-02-20T06:38:13.384Z,4.50
2023-02-20T06:40:39.801Z,5.55
2023-02-20T06:43:06.283Z,7.03
2023-02-20T06:45:32.753Z,3.80
2023-02-20T06:47:59.146Z,3.67
2023-02-20T06:50:25.622Z,4.82
2023-02-20T06:52:52.023Z,4.38
2023-02-20T06:55:18.415Z,4.57
2023-02-20T06:57:44.930Z,5.30
2023-02-20T07:00:12.253Z,6.40
2023-02-20T07:02:38.685Z,5.75
2023-02-20T07:05:05.755Z,4.53
2023-02-20T07:07:32.366Z,5.50
2023-02-20T07:10:01.413Z,5.80
2023-02-20T07:12:32.186Z,4.70
2023-02-20T07:14:59.528Z,5.63
2023-02-20T07:17:26.004Z,4.45
2023-02-20T07:19:52.417Z,3.97
2023-02-20T07:22:18.918Z,3.83
2023-02-20T07:24:50.354Z,4.38
2023-02-20T07:27:16.809Z,3.83
2023-02-20T07:29:45.798Z,3.85
2023-02-20T07:32:13.433Z,3.60
2023-02-20T07:34:40.038Z,4.63
2023-02-20T07:37:07.381Z,3.58
2023-02-20T07:39:33.786Z,3.38
2023-02-20T07:42:00.330Z,4.05
2023-02-20T07:44:48.789Z,4.05
2023-02-20T07:47:15.720Z,3.63
2023-02-20T07:49:42.236Z,4.85
2023-02-20T07:52:08.641Z,3.15
2023-02-20T07:54:35.122Z,4.05
2023-02-20T07:57:01.690Z,3.90
2023-02-20T07:59:28.197Z,5.95
2023-02-20T08:01:54.663Z,3.63
2023-02-20T08:04:21.174Z,5.43
2023-02-20T08:06:47.641Z,3.40
2023-02-20T08:09:14.147Z,3.80
2023-02-20T08:11:40.583Z,5.03
2023-02-20T08:14:07.770Z,3.60
2023-02-20T08:16:34.295Z,4.07
2023-02-20T08:19:00.901Z,2.05
2023-02-20T08:21:27.866Z,4.90
2023-02-20T08:23:55.053Z,5.60
2023-02-20T08:26:21.805Z,4.15
2023-02-20T08:28:49.413Z,4.32
2023-02-20T08:31:29.974Z,3.80
2023-02-20T08:33:57.908Z,4.03
2023-02-20T08:36:24.335Z,3.55
2023-02-20T08:38:50.838Z,4.70
2023-02-20T08:41:17.489Z,4.32
2023-02-20T08:43:44.405Z,3.22
2023-02-20T08:46:11.605Z,3.90
2023-02-20T08:48:38.709Z,4.38
2023-02-20T08:51:06.717Z,2.53
2023-02-20T08:53:34.705Z,3.50
2023-02-20T08:56:01.167Z,5.03
2023-02-20T08:58:27.605Z,4.38
2023-02-20T09:00:54.697Z,3.92
2023-02-20T09:03:21.731Z,4.28
2023-02-20T09:05:48.635Z,4.90
2023-02-20T09:08:15.184Z,3.50
2023-02-20T09:10:41.869Z,4.95
2023-02-20T09:13:08.603Z,4.53
2023-02-20T09:15:39.582Z,4.18
2023-02-20T09:18:09.785Z,4.45
2023-02-20T09:20:37.973Z,4.53
2023-02-20T09:23:04.873Z,4.50
2023-02-20T09:25:31.341Z,5.20
2023-02-20T09:27:57.803Z,3.92
2023-02-20T09:30:24.573Z,6.47
2023-02-20T09:32:51.508Z,5.40
2023-02-20T09:35:24.209Z,4.43
2023-02-20T09:37:50.639Z,5.38
2023-02-20T09:40:21.050Z,5.20
2023-02-20T09:45:37.571Z,5.97
2023-02-20T09:48:39.659Z,4.00
2023-02-20T09:51:14.373Z,4.00
2023-02-20T09:53:52.111Z,6.45
2023-02-20T09:56:26.348Z,5.82
2023-02-20T09:59:19.628Z,5.95
2023-02-20T10:02:03.788Z,5.28
2023-02-20T10:04:58.926Z,6.43
2023-02-20T10:07:29.999Z,7.18
2023-02-20T10:09:58.757Z,6.47
2023-02-20T10:13:18.709Z,5.85
2023-02-20T10:16:17.271Z,6.00
2023-02-20T10:19:08.150Z,6.10
2023-02-20T10:22:03.849Z,6.93
2023-02-20T10:24:38.062Z,7.43
2023-02-20T10:27:47.692Z,4.70
2023-02-20T10:32:54.537Z,5.30
2023-02-20T10:35:26.107Z,5.20
2023-02-20T10:37:58.446Z,4.32
2023-02-20T10:40:40.599Z,3.63
2023-02-20T10:43:30.562Z,4.10
2023-02-20T10:48:33.382Z,3.30
2023-02-20T10:53:56.988Z,3.72
2023-02-20T10:56:46.955Z,4.38
2023-02-20T11:01:49.327Z,3.85
2023-02-20T11:04:21.528Z,4.50
2023-02-20T11:07:04.806Z,4.85
2023-02-20T11:09:31.726Z,3.20
2023-02-20T11:11:59.300Z,3.30
2023-02-20T11:14:42.694Z,4.95
2023-02-20T11:19:50.826Z,6.30
2023-02-20T11:22:37.446Z,5.35
2023-02-20T11:25:21.729Z,5.82
2023-02-20T11:27:51.399Z,4.70
2023-02-20T11:30:32.041Z,5.22
2023-02-20T11:33:17.161Z,6.82
2023-02-20T11:35:46.966Z,6.43
2023-02-20T11:38:19.122Z,7.20
2023-02-20T11:41:03.205Z,5.88
2023-02-20T11:43:37.813Z,7.57
2023-02-20T11:46:24.142Z,6.15
2023-02-20T11:48:56.723Z,5.60
2023-02-20T11:51:45.948Z,6.07
2023-02-20T11:54:29.476Z,6.60
2023-02-20T11:57:06.080Z,5.97
2023-02-20T11:59:44.019Z,8.45
2023-02-20T12:02:17.025Z,4.47
2023-02-20T12:04:44.454Z,6.40
2023-02-20T12:07:22.986Z,7.10
2023-02-20T12:09:53.262Z,6.53
2023-02-20T12:12:23.622Z,6.95
2023-02-20T12:17:37.963Z,5.13
2023-02-20T12:20:31.416Z,6.93
2023-02-20T12:23:03.920Z,7.70
2023-02-20T12:25:44.106Z,7.85
2023-02-20T12:28:38.890Z,6.85
2023-02-20T12:31:20.733Z,7.30
2023-02-20T12:34:16.002Z,6.28
2023-02-20T12:37:03.164Z,6.45
2023-02-20T12:39:56.695Z,5.80
2023-02-20T12:42:31.892Z,6.47
2023-02-20T12:45:11.109Z,7.80
2023-02-20T12:47:41.185Z,6.40
2023-02-20T12:50:40.576Z,6.50
2023-02-20T12:53:30.495Z,8.02
2023-02-20T12:58:38.296Z,7.18
2023-02-20T13:01:11.908Z,5.93
2023-02-20T13:03:59.311Z,6.93
2023-02-20T13:06:38.659Z,8.02
2023-02-20T13:09:20.136Z,7.22
2023-02-20T13:11:51.017Z,7.25
2023-02-20T13:14:28.373Z,8.80
2023-02-20T13:17:00.854Z,5.57
2023-02-20T13:19:43.492Z,6.57
2023-02-20T13:22:11.983Z,6.78
2023-02-20T13:24:39.710Z,5.03
2023-02-20T13:27:26.462Z,4.75
2023-02-20T13:30:02.490Z,7.10
2023-02-20T13:32:32.027Z,6.72
2023-02-20T13:35:36.246Z,7.75
2023-02-20T13:38:17.688Z,5.78
2023-02-20T13:41:05.839Z,7.18
2023-02-20T13:43:36.558Z,8.13
2023-02-20T13:46:07.178Z,6.00
2023-02-20T13:48:33.982Z,5.90
2023-02-20T13:51:15.691Z,7.45
2023-02-20T13:53:47.946Z,8.07
2023-02-20T13:56:18.363Z,6.97
2023-02-20T14:01:12.245Z,6.03
2023-02-20T14:03:38.807Z,8.13
2023-02-20T14:06:17.133Z,8.02
2023-02-20T14:08:46.259Z,7.18
2023-02-20T14:11:33.720Z,8.23
2023-02-20T14:14:11.732Z,8.02
2023-02-20T14:16:41.912Z,8.75
2023-02-20T14:19:29.767Z,7.57
2023-02-20T14:22:14.147Z,7.35
2023-02-20T14:24:40.620Z,8.90
2023-02-20T14:27:28.862Z,9.35
2023-02-20T14:30:13.922Z,8.57
2023-02-20T14:32:46.274Z,9.45
2023-02-20T14:35:39.572Z,8.50
2023-02-20T14:38:30.901Z,8.40
2023-02-20T14:40:58.647Z,7.82
2023-02-20T14:43:28.054Z,7.55
2023-02-20T14:46:08.680Z,8.10
2023-02-20T14:48:38.497Z,8.27
2023-02-20T14:51:16.212Z,7.38
2023-02-20T14:53:44.103Z,8.60
2023-02-20T14:56:15.704Z,6.72
2023-02-20T14:58:42.410Z,9.15
2023-02-20T15:01:39.790Z,6.88
2023-02-20T15:04:16.784Z,6.97
2023-02-20T15:06:46.598Z,5.75
2023-02-20T15:09:22.383Z,6.97
2023-02-20T15:11:59.186Z,7.05
2023-02-20T15:14:28.852Z,9.15
2023-02-20T15:17:20.951Z,7.45
2023-02-20T15:19:47.959Z,9.45
2023-02-20T15:22:33.940Z,5.97
2023-02-20T15:25:28.336Z,7.60
2023-02-20T15:28:13.279Z,7.35
2023-02-20T15:31:10.646Z,7.75
2023-02-20T15:33:40.793Z,8.48
2023-02-20T15:36:13.160Z,7.68
2023-02-20T15:38:41.112Z,9.63
2023-02-20T15:41:09.847Z,8.13
2023-02-20T15:43:47.268Z,8.38
2023-02-20T15:46:19.135Z,7.50
2023-02-20T15:48:46.001Z,7.95
2023-02-20T15:51:17.550Z,8.02
2023-02-20T15:53:45.773Z,7.50
2023-02-20T15:56:12.782Z,7.80
2023-02-20T15:58:42.876Z,7.75
2023-02-20T16:01:10.531Z,7.53
2023-02-20T16:03:50.589Z,6.57
2023-02-20T16:06:19.638Z,7.53
2023-02-20T16:08:46.811Z,6.82
2023-02-20T16:11:14.119Z,7.22
2023-02-20T16:13:44.365Z,8.27
2023-02-20T16:16:34.120Z,5.57
2023-02-20T16:19:01.726Z,7.35
2023-02-20T16:21:28.739Z,6.90
2023-02-20T16:23:55.397Z,7.85
2023-02-20T16:26:25.773Z,7.30
2023-02-20T16:31:21.408Z,5.85
2023-02-20T16:33:49.411Z,9.00
2023-02-20T16:36:24.314Z,8.02
2023-02-20T16:38:51.494Z,6.63
2023-02-20T16:41:18.009Z,7.78
2023-02-20T16:43:44.480Z,8.43
2023-02-20T16:46:10.996Z,7.40
2023-02-20T16:48:37.561Z,7.18
2023-02-20T16:51:06.215Z,9.25
2023-02-20T16:53:32.834Z,7.82
2023-02-20T16:55:59.373Z,6.70
2023-02-20T16:58:25.995Z,8.80
2023-02-20T17:00:57.626Z,8.52
2023-02-20T17:03:24.525Z,7.95
2023-02-20T17:05:58.230Z,8.20
2023-02-20T17:08:25.815Z,8.43
2023-02-20T17:10:52.434Z,9.70
2023-02-20T17:13:18.957Z,7.38
2023-02-20T17:15:47.643Z,11.00
2023-02-20T17:18:14.962Z,9.50
2023-02-20T17:20:41.898Z,9.45
2023-02-20T17:23:08.522Z,7.18
2023-02-20T17:25:35.085Z,7.78
2023-02-20T17:28:02.118Z,7.13
2023-02-20T17:30:28.598Z,7.72
2023-02-20T17:32:55.040Z,7.00
2023-02-20T17:35:21.490Z,7.70
2023-02-20T17:37:47.949Z,7.55
2023-02-20T17:40:16.006Z,8.18
2023-02-20T17:42:42.422Z,6.13
2023-02-20T17:45:09.476Z,8.07
2023-02-20T17:47:37.284Z,6.90
2023-02-20T17:50:04.086Z,8.63
2023-02-20T17:52:30.516Z,8.45
2023-02-20T17:54:57.063Z,7.47
2023-02-20T17:57:23.906Z,6.28
2023-02-20T17:59:50.763Z,7.18
2023-02-20T18:02:18.689Z,8.48
2023-02-20T18:04:45.272Z,7.18
2023-02-20T18:07:13.965Z,8.95
2023-02-20T18:09:40.516Z,8.32
2023-02-20T18:12:07.533Z,8.20
2023-02-20T18:14:34.055Z,7.80
2023-02-20T18:17:00.553Z,8.00
2023-02-20T18:19:27.169Z,8.65
2023-02-20T18:21:53.794Z,9.75
2023-02-20T18:24:26.020Z,10.35
2023-02-20T18:26:54.122Z,8.63
2023-02-20T18:29:21.510Z,8.60
2023-02-20T18:31:51.916Z,7.45
2023-02-20T18:36:45.275Z,8.55
2023-02-20T18:39:13.708Z,7.20
2023-02-20T18:41:40.816Z,9.13
2023-02-20T18:44:08.753Z,8.35
2023-02-20T18:46:37.233Z,8.88
2023-02-20T18:49:04.293Z,8.75
2023-02-20T18:51:42.487Z,7.38
2023-02-20T18:54:16.794Z,7.75
2023-02-20T18:56:50.580Z,6.80
2023-02-20T18:59:17.857Z,7.72
2023-02-20T19:01:45.148Z,5.05
2023-02-20T19:04:13.736Z,7.57
2023-02-20T19:06:42.251Z,8.40
2023-02-20T19:09:08.831Z,9.05
2023-02-20T19:11:35.399Z,7.47
2023-02-20T19:14:02.034Z,7.55
2023-02-20T19:16:28.554Z,9.93
2023-02-20T19:18:55.199Z,8.10
2023-02-20T19:21:21.640Z,7.63
2023-02-20T19:23:48.585Z,8.27
2023-02-20T19:26:16.236Z,6.32
2023-02-20T19:28:42.887Z,6.50
2023-02-20T19:31:11.226Z,7.68
2023-02-20T19:33:38.268Z,6.10
2023-02-20T19:36:05.854Z,5.72
2023-02-20T19:38:34.605Z,6.32
2023-02-20T19:41:01.117Z,7.03
2023-02-20T19:43:29.904Z,6.32
2023-02-20T19:45:56.592Z,5.10
2023-02-20T19:48:23.055Z,7.28
2023-02-20T19:50:49.511Z,5.97
2023-02-20T19:53:16.743Z,6.07
2023-02-20T19:55:43.383Z,6.75
2023-02-20T19:58:09.849Z,5.65
2023-02-20T20:00:36.307Z,4.75
2023-02-20T20:03:06.185Z,7.25
2023-02-20T20:05:32.671Z,7.22
2023-02-20T20:08:01.489Z,8.18
2023-02-20T20:10:31.238Z,6.68
2023-02-20T20:12:57.719Z,9.60
2023-02-20T20:15:25.760Z,6.70
2023-02-20T20:17:54.947Z,9.73
2023-02-20T20:20:23.628Z,8.43
2023-02-20T20:22:52.763Z,8.00
2023-02-20T20:25:20.653Z,8.35
2023-02-20T20:27:54.590Z,9.50
2023-02-20T20:30:26.633Z,6.63
2023-02-20T20:32:53.406Z,10.13
2023-02-20T20:35:22.533Z,10.48
2023-02-20T20:37:48.998Z,11.57
2023-02-20T20:40:16.798Z,12.00
2023-02-20T20:42:44.019Z,11.60
2023-02-20T20:45:12.838Z,11.85
2023-02-20T20:47:40.376Z,13.70
2023-02-20T20:50:07.008Z,13.35
2023-02-20T20:52:33.518Z,12.65
2023-02-20T20:55:04.495Z,12.75
2023-02-20T20:57:35.498Z,14.38
2023-02-20T21:00:05.426Z,12.93
2023-02-20T21:02:31.885Z,14.70
2023-02-20T21:05:09.663Z,12.35
2023-02-20T21:07:37.453Z,14.07
2023-02-20T21:10:04.145Z,15.77
2023-02-20T21:12:32.360Z,15.00
2023-02-20T21:14:58.814Z,13.93
2023-02-20T21:17:25.263Z,16.13
2023-02-20T21:19:51.764Z,13.75
2023-02-20T21:22:18.248Z,16.70
2023-02-20T21:24:44.708Z,15.90
2023-02-20T21:27:11.170Z,18.25
2023-02-20T21:29:37.693Z,16.52
2023-02-20T21:32:04.285Z,17.60
2023-02-20T21:34:30.751Z,16.77
2023-02-20T21:36:57.190Z,17.25
2023-02-20T21:39:24.150Z,16.33
2023-02-20T21:42:10.333Z,16.63
2023-02-20T21:44:39.060Z,15.73
2023-02-20T21:47:08.855Z,17.20
2023-02-20T21:49:36.590Z,13.48
2023-02-20T21:52:05.383Z,15.85
2023-02-20T21:54:32.709Z,15.38
2023-02-20T21:57:00.464Z,16.65
2023-02-20T21:59:27.146Z,18.20
2023-02-20T22:01:53.700Z,15.30
2023-02-20T22:04:20.865Z,16.25
2023-02-20T22:07:06.630Z,16.10
2023-02-20T22:09:51.688Z,16.25
2023-02-20T22:12:37.118Z,15.25
2023-02-20T22:15:22.532Z,13.63
2023-02-20T22:18:07.269Z,13.30
2023-02-20T22:20:52.344Z,13.82
2023-02-20T22:23:37.655Z,12.43
2023-02-20T22:26:23.123Z,12.18
2023-02-20T22:29:08.180Z,14.13
2023-02-20T22:31:53.214Z,9.65
2023-02-20T22:34:38.500Z,10.65
2023-02-20T22:37:23.626Z,11.45
2023-02-20T22:40:08.546Z,14.32
2023-02-20T22:42:53.417Z,11.63
2023-02-20T22:45:38.316Z,10.00
2023-02-20T22:48:23.421Z,9.20
2023-02-20T22:51:08.374Z,10.50
2023-02-20T22:53:53.247Z,11.10
2023-02-20T22:56:40.140Z,11.75
2023-02-20T22:59:25.779Z,9.00
2023-02-20T23:02:11.468Z,8.13
2023-02-20T23:04:56.617Z,9.02
2023-02-20T23:07:41.618Z,9.93
2023-02-20T23:10:27.057Z,8.57
2023-02-20T23:13:12.212Z,8.75
2023-02-20T23:15:57.164Z,10.05
2023-02-20T23:18:42.330Z,9.27
2023-02-20T23:21:27.185Z,10.25
2023-02-20T23:24:12.175Z,8.80
2023-02-20T23:26:56.917Z,8.48
2023-02-20T23:29:42.359Z,9.15
2023-02-20T23:32:27.370Z,8.95
2023-02-20T23:35:12.672Z,7.13
2023-02-20T23:37:57.540Z,9.25
2023-02-20T23:40:42.361Z,10.63
2023-02-20T23:43:27.916Z,11.88
2023-02-20T23:46:13.831Z,8.40
2023-02-20T23:48:59.058Z,10.05
2023-02-20T23:51:44.181Z,10.68
2023-02-20T23:54:29.110Z,9.68
2023-02-20T23:57:14.091Z,10.20
2023-02-20T23:59:58.922Z,11.38
